sensor_id;sensor_type;location;lat;lon;timestamp;temperature;humidity
55091;DHT22;40985;53.180;5.800;2022-10-16T00:00:35;12.10;99.90
55091;DHT22;40985;53.180;5.800;2022-10-16T00:03:02;12.10;99.90
55091;DHT22;40985;53.180;5.800;2022-10-16T00:05:28;12.10;99.90
55091;DHT22;40985;53.180;5.800;2022-10-16T00:07:53;12.00;99.90
55091;DHT22;40985;53.180;5.800;2022-10-16T00:10:19;12.00;99.90
55091;DHT22;40985;53.180;5.800;2022-10-16T00:12:45;12.00;99.90
55091;DHT22;40985;53.180;5.800;2022-10-16T00:15:11;12.10;99.90
55091;DHT22;40985;53.180;5.800;2022-10-16T00:17:36;12.00;99.90
55091;DHT22;40985;53.180;5.800;2022-10-16T00:20:02;12.10;99.90
55091;DHT22;40985;53.180;5.800;2022-10-16T00:22:28;12.00;99.90
55091;DHT22;40985;53.180;5.800;2022-10-16T00:24:54;12.10;99.90
55091;DHT22;40985;53.180;5.800;2022-10-16T00:27:20;12.10;99.90
55091;DHT22;40985;53.180;5.800;2022-10-16T00:29:52;12.10;99.90
55091;DHT22;40985;53.180;5.800;2022-10-16T00:32:18;12.10;99.90
55091;DHT22;40985;53.180;5.800;2022-10-16T00:34:44;12.10;99.90
55091;DHT22;40985;53.180;5.800;2022-10-16T00:37:10;12.20;99.90
55091;DHT22;40985;53.180;5.800;2022-10-16T00:39:35;12.10;99.90
55091;DHT22;40985;53.180;5.800;2022-10-16T00:42:01;12.10;99.90
55091;DHT22;40985;53.180;5.800;2022-10-16T00:47:42;12.10;99.90
55091;DHT22;40985;53.180;5.800;2022-10-16T00:50:36;12.10;99.90
55091;DHT22;40985;53.180;5.800;2022-10-16T00:53:03;12.10;99.90
55091;DHT22;40985;53.180;5.800;2022-10-16T00:55:28;12.00;99.90
55091;DHT22;40985;53.180;5.800;2022-10-16T00:57:56;12.00;99.90
55091;DHT22;40985;53.180;5.800;2022-10-16T01:00:25;12.00;99.90
55091;DHT22;40985;53.180;5.800;2022-10-16T01:02:59;12.10;99.90
55091;DHT22;40985;53.180;5.800;2022-10-16T01:05:33;12.10;99.90
55091;DHT22;40985;53.180;5.800;2022-10-16T01:08:15;12.20;99.90
55091;DHT22;40985;53.180;5.800;2022-10-16T01:10:54;12.20;99.90
55091;DHT22;40985;53.180;5.800;2022-10-16T01:13:29;12.30;99.90
55091;DHT22;40985;53.180;5.800;2022-10-16T01:16:27;12.30;99.90
55091;DHT22;40985;53.180;5.800;2022-10-16T01:19:32;12.30;99.90
55091;DHT22;40985;53.180;5.800;2022-10-16T01:22:03;12.30;99.90
55091;DHT22;40985;53.180;5.800;2022-10-16T01:24:41;12.30;99.90
55091;DHT22;40985;53.180;5.800;2022-10-16T01:27:25;12.30;99.90
55091;DHT22;40985;53.180;5.800;2022-10-16T01:30:07;12.40;99.90
55091;DHT22;40985;53.180;5.800;2022-10-16T01:32:41;12.30;99.90
55091;DHT22;40985;53.180;5.800;2022-10-16T01:38:17;12.30;99.90
55091;DHT22;40985;53.180;5.800;2022-10-16T01:40:49;12.30;99.90
55091;DHT22;40985;53.180;5.800;2022-10-16T01:43:19;12.30;99.90
55091;DHT22;40985;53.180;5.800;2022-10-16T01:45:48;12.40;99.90
55091;DHT22;40985;53.180;5.800;2022-10-16T01:48:18;12.50;99.90
55091;DHT22;40985;53.180;5.800;2022-10-16T01:50:57;12.50;99.90
55091;DHT22;40985;53.180;5.800;2022-10-16T01:53:25;12.40;99.90
55091;DHT22;40985;53.180;5.800;2022-10-16T01:55:53;12.40;99.90
55091;DHT22;40985;53.180;5.800;2022-10-16T01:58:21;12.40;99.90
55091;DHT22;40985;53.180;5.800;2022-10-16T02:00:48;12.40;99.90
55091;DHT22;40985;53.180;5.800;2022-10-16T02:03:18;12.30;99.90
55091;DHT22;40985;53.180;5.800;2022-10-16T02:05:53;12.30;99.90
55091;DHT22;40985;53.180;5.800;2022-10-16T02:08:20;12.30;99.90
55091;DHT22;40985;53.180;5.800;2022-10-16T02:10:47;12.30;99.90
55091;DHT22;40985;53.180;5.800;2022-10-16T02:13:23;12.20;99.90
55091;DHT22;40985;53.180;5.800;2022-10-16T02:15:52;12.30;99.90
55091;DHT22;40985;53.180;5.800;2022-10-16T02:18:17;12.30;99.90
55091;DHT22;40985;53.180;5.800;2022-10-16T02:26:15;12.20;99.90
55091;DHT22;40985;53.180;5.800;2022-10-16T02:28:50;12.20;99.90
55091;DHT22;40985;53.180;5.800;2022-10-16T02:31:23;12.30;99.90
55091;DHT22;40985;53.180;5.800;2022-10-16T02:33:51;12.20;99.90
55091;DHT22;40985;53.180;5.800;2022-10-16T02:36:18;12.20;99.90
55091;DHT22;40985;53.180;5.800;2022-10-16T02:38:44;12.20;99.90
55091;DHT22;40985;53.180;5.800;2022-10-16T02:41:11;12.20;99.90
55091;DHT22;40985;53.180;5.800;2022-10-16T02:43:36;12.10;99.90
55091;DHT22;40985;53.180;5.800;2022-10-16T02:46:02;12.10;99.90
55091;DHT22;40985;53.180;5.800;2022-10-16T02:48:28;12.10;99.90
55091;DHT22;40985;53.180;5.800;2022-10-16T02:50:54;12.10;99.90
55091;DHT22;40985;53.180;5.800;2022-10-16T02:53:19;12.10;99.90
55091;DHT22;40985;53.180;5.800;2022-10-16T02:55:45;12.00;99.90
55091;DHT22;40985;53.180;5.800;2022-10-16T02:58:10;12.00;99.90
55091;DHT22;40985;53.180;5.800;2022-10-16T03:00:36;11.90;99.90
55091;DHT22;40985;53.180;5.800;2022-10-16T03:03:02;11.90;99.90
55091;DHT22;40985;53.180;5.800;2022-10-16T03:05:27;11.80;99.90
55091;DHT22;40985;53.180;5.800;2022-10-16T03:07:53;11.70;99.90
55091;DHT22;40985;53.180;5.800;2022-10-16T03:10:19;11.80;99.90
55091;DHT22;40985;53.180;5.800;2022-10-16T03:12:44;11.70;99.90
55091;DHT22;40985;53.180;5.800;2022-10-16T03:15:10;11.70;99.90
55091;DHT22;40985;53.180;5.800;2022-10-16T03:17:36;11.70;99.90
55091;DHT22;40985;53.180;5.800;2022-10-16T03:20:02;11.70;99.90
55091;DHT22;40985;53.180;5.800;2022-10-16T03:22:27;11.70;99.90
55091;DHT22;40985;53.180;5.800;2022-10-16T03:24:53;11.70;99.90
55091;DHT22;40985;53.180;5.800;2022-10-16T03:27:19;11.70;99.90
55091;DHT22;40985;53.180;5.800;2022-10-16T03:29:45;11.70;99.90
55091;DHT22;40985;53.180;5.800;2022-10-16T03:32:10;11.70;99.90
55091;DHT22;40985;53.180;5.800;2022-10-16T03:34:36;11.80;99.90
55091;DHT22;40985;53.180;5.800;2022-10-16T03:37:02;11.80;99.90
55091;DHT22;40985;53.180;5.800;2022-10-16T03:39:27;11.90;99.90
55091;DHT22;40985;53.180;5.800;2022-10-16T03:41:53;11.90;99.90
55091;DHT22;40985;53.180;5.800;2022-10-16T03:44:19;12.00;99.90
55091;DHT22;40985;53.180;5.800;2022-10-16T03:46:44;12.10;99.90
55091;DHT22;40985;53.180;5.800;2022-10-16T03:49:10;12.10;99.90
55091;DHT22;40985;53.180;5.800;2022-10-16T03:51:36;12.20;99.90
55091;DHT22;40985;53.180;5.800;2022-10-16T03:54:02;12.20;99.90
55091;DHT22;40985;53.180;5.800;2022-10-16T03:56:27;12.20;99.90
55091;DHT22;40985;53.180;5.800;2022-10-16T03:58:53;12.20;99.90
55091;DHT22;40985;53.180;5.800;2022-10-16T04:01:19;12.20;99.90
55091;DHT22;40985;53.180;5.800;2022-10-16T04:03:44;12.30;99.90
55091;DHT22;40985;53.180;5.800;2022-10-16T04:06:10;12.20;99.90
55091;DHT22;40985;53.180;5.800;2022-10-16T04:08:36;12.30;99.90
55091;DHT22;40985;53.180;5.800;2022-10-16T04:11:02;12.30;99.90
55091;DHT22;40985;53.180;5.800;2022-10-16T04:13:28;12.30;99.90
55091;DHT22;40985;53.180;5.800;2022-10-16T04:15:54;12.30;99.90
55091;DHT22;40985;53.180;5.800;2022-10-16T04:18:20;12.30;99.90
55091;DHT22;40985;53.180;5.800;2022-10-16T04:20:45;12.20;99.90
55091;DHT22;40985;53.180;5.800;2022-10-16T04:23:11;12.20;99.90
55091;DHT22;40985;53.180;5.800;2022-10-16T04:25:37;12.10;99.90
55091;DHT22;40985;53.180;5.800;2022-10-16T04:28:03;12.20;99.90
55091;DHT22;40985;53.180;5.800;2022-10-16T04:30:28;12.20;99.90
55091;DHT22;40985;53.180;5.800;2022-10-16T04:32:54;12.20;99.90
55091;DHT22;40985;53.180;5.800;2022-10-16T04:35:21;12.20;99.90
55091;DHT22;40985;53.180;5.800;2022-10-16T04:37:47;12.20;99.90
55091;DHT22;40985;53.180;5.800;2022-10-16T04:40:13;12.10;99.90
55091;DHT22;40985;53.180;5.800;2022-10-16T04:42:39;12.10;99.90
55091;DHT22;40985;53.180;5.800;2022-10-16T04:45:05;12.00;99.90
55091;DHT22;40985;53.180;5.800;2022-10-16T04:47:31;12.00;99.90
55091;DHT22;40985;53.180;5.800;2022-10-16T04:49:57;12.00;99.90
55091;DHT22;40985;53.180;5.800;2022-10-16T04:52:24;11.90;99.90
55091;DHT22;40985;53.180;5.800;2022-10-16T04:54:50;11.90;99.90
55091;DHT22;40985;53.180;5.800;2022-10-16T04:57:16;11.90;99.90
55091;DHT22;40985;53.180;5.800;2022-10-16T04:59:42;11.90;99.90
55091;DHT22;40985;53.180;5.800;2022-10-16T05:02:08;11.90;99.90
55091;DHT22;40985;53.180;5.800;2022-10-16T05:04:34;11.90;99.90
55091;DHT22;40985;53.180;5.800;2022-10-16T05:06:59;11.90;99.90
55091;DHT22;40985;53.180;5.800;2022-10-16T05:09:25;11.90;99.90
55091;DHT22;40985;53.180;5.800;2022-10-16T05:11:51;11.90;99.90
55091;DHT22;40985;53.180;5.800;2022-10-16T05:14:17;11.80;99.90
55091;DHT22;40985;53.180;5.800;2022-10-16T05:16:42;11.80;99.90
55091;DHT22;40985;53.180;5.800;2022-10-16T05:19:08;11.90;99.90
55091;DHT22;40985;53.180;5.800;2022-10-16T05:21:34;11.90;99.90
55091;DHT22;40985;53.180;5.800;2022-10-16T05:23:59;11.90;99.90
55091;DHT22;40985;53.180;5.800;2022-10-16T05:26:25;11.90;99.90
55091;DHT22;40985;53.180;5.800;2022-10-16T05:28:51;11.90;99.90
55091;DHT22;40985;53.180;5.800;2022-10-16T05:31:16;11.80;99.90
55091;DHT22;40985;53.180;5.800;2022-10-16T05:33:42;11.90;99.90
55091;DHT22;40985;53.180;5.800;2022-10-16T05:36:09;11.80;99.90
55091;DHT22;40985;53.180;5.800;2022-10-16T05:38:36;11.90;99.90
55091;DHT22;40985;53.180;5.800;2022-10-16T05:41:03;11.80;99.90
55091;DHT22;40985;53.180;5.800;2022-10-16T05:43:29;11.80;99.90
55091;DHT22;40985;53.180;5.800;2022-10-16T05:46:03;11.80;99.90
55091;DHT22;40985;53.180;5.800;2022-10-16T05:48:30;11.80;99.90
55091;DHT22;40985;53.180;5.800;2022-10-16T05:51:07;11.80;99.90
55091;DHT22;40985;53.180;5.800;2022-10-16T05:53:34;11.80;99.90
55091;DHT22;40985;53.180;5.800;2022-10-16T05:56:00;11.80;99.90
55091;DHT22;40985;53.180;5.800;2022-10-16T05:58:30;11.80;99.90
55091;DHT22;40985;53.180;5.800;2022-10-16T06:01:04;11.80;99.90
55091;DHT22;40985;53.180;5.800;2022-10-16T06:03:29;11.80;99.90
55091;DHT22;40985;53.180;5.800;2022-10-16T06:05:55;11.80;99.90
55091;DHT22;40985;53.180;5.800;2022-10-16T06:08:22;11.80;99.90
55091;DHT22;40985;53.180;5.800;2022-10-16T06:10:49;11.80;99.90
55091;DHT22;40985;53.180;5.800;2022-10-16T06:13:15;11.80;99.90
55091;DHT22;40985;53.180;5.800;2022-10-16T06:15:42;11.70;99.90
55091;DHT22;40985;53.180;5.800;2022-10-16T06:18:10;11.70;99.90
55091;DHT22;40985;53.180;5.800;2022-10-16T06:20:37;11.80;99.90
55091;DHT22;40985;53.180;5.800;2022-10-16T06:23:03;11.70;99.90
55091;DHT22;40985;53.180;5.800;2022-10-16T06:25:30;11.70;99.90
55091;DHT22;40985;53.180;5.800;2022-10-16T06:27:56;11.70;99.90
55091;DHT22;40985;53.180;5.800;2022-10-16T06:30:22;11.70;99.90
55091;DHT22;40985;53.180;5.800;2022-10-16T06:32:48;11.80;99.90
55091;DHT22;40985;53.180;5.800;2022-10-16T06:35:13;11.80;99.90
55091;DHT22;40985;53.180;5.800;2022-10-16T06:37:39;11.90;99.90
55091;DHT22;40985;53.180;5.800;2022-10-16T06:40:05;11.90;99.90
55091;DHT22;40985;53.180;5.800;2022-10-16T06:42:31;12.00;99.90
55091;DHT22;40985;53.180;5.800;2022-10-16T06:44:57;12.00;99.90
55091;DHT22;40985;53.180;5.800;2022-10-16T06:47:22;12.00;99.90
55091;DHT22;40985;53.180;5.800;2022-10-16T06:49:48;12.00;99.90
55091;DHT22;40985;53.180;5.800;2022-10-16T06:52:14;12.00;99.90
55091;DHT22;40985;53.180;5.800;2022-10-16T06:54:39;11.90;99.90
55091;DHT22;40985;53.180;5.800;2022-10-16T06:57:05;11.90;99.90
55091;DHT22;40985;53.180;5.800;2022-10-16T06:59:31;11.90;99.90
55091;DHT22;40985;53.180;5.800;2022-10-16T07:01:56;11.90;99.90
55091;DHT22;40985;53.180;5.800;2022-10-16T07:04:22;11.90;99.90
55091;DHT22;40985;53.180;5.800;2022-10-16T07:06:48;11.90;99.90
55091;DHT22;40985;53.180;5.800;2022-10-16T07:09:13;12.00;99.90
55091;DHT22;40985;53.180;5.800;2022-10-16T07:11:40;12.00;99.90
55091;DHT22;40985;53.180;5.800;2022-10-16T07:14:14;11.90;99.90
55091;DHT22;40985;53.180;5.800;2022-10-16T07:16:40;11.90;99.90
55091;DHT22;40985;53.180;5.800;2022-10-16T07:19:06;11.90;99.90
55091;DHT22;40985;53.180;5.800;2022-10-16T07:21:34;11.90;99.90
55091;DHT22;40985;53.180;5.800;2022-10-16T07:24:05;11.90;99.90
55091;DHT22;40985;53.180;5.800;2022-10-16T07:26:34;11.90;99.90
55091;DHT22;40985;53.180;5.800;2022-10-16T07:29:00;11.90;99.90
55091;DHT22;40985;53.180;5.800;2022-10-16T07:31:26;11.90;99.90
55091;DHT22;40985;53.180;5.800;2022-10-16T07:33:53;12.00;99.90
55091;DHT22;40985;53.180;5.800;2022-10-16T07:36:20;12.10;99.90
55091;DHT22;40985;53.180;5.800;2022-10-16T07:38:46;12.10;99.90
55091;DHT22;40985;53.180;5.800;2022-10-16T07:41:15;12.10;99.90
55091;DHT22;40985;53.180;5.800;2022-10-16T07:43:49;12.20;99.90
55091;DHT22;40985;53.180;5.800;2022-10-16T07:46:16;12.30;99.90
55091;DHT22;40985;53.180;5.800;2022-10-16T07:48:42;12.30;99.90
55091;DHT22;40985;53.180;5.800;2022-10-16T07:51:11;12.30;99.90
55091;DHT22;40985;53.180;5.800;2022-10-16T07:53:37;12.40;99.90
55091;DHT22;40985;53.180;5.800;2022-10-16T07:56:05;12.50;99.90
55091;DHT22;40985;53.180;5.800;2022-10-16T07:58:32;12.60;99.90
55091;DHT22;40985;53.180;5.800;2022-10-16T08:00:58;12.60;99.90
55091;DHT22;40985;53.180;5.800;2022-10-16T08:03:24;12.60;99.90
55091;DHT22;40985;53.180;5.800;2022-10-16T08:05:50;12.60;99.90
55091;DHT22;40985;53.180;5.800;2022-10-16T08:08:17;12.60;99.90
55091;DHT22;40985;53.180;5.800;2022-10-16T08:10:44;12.60;99.90
55091;DHT22;40985;53.180;5.800;2022-10-16T08:13:13;12.60;99.90
55091;DHT22;40985;53.180;5.800;2022-10-16T08:15:43;12.60;99.90
55091;DHT22;40985;53.180;5.800;2022-10-16T08:18:11;12.60;99.90
55091;DHT22;40985;53.180;5.800;2022-10-16T08:20:37;12.60;99.90
55091;DHT22;40985;53.180;5.800;2022-10-16T08:23:03;12.60;99.90
55091;DHT22;40985;53.180;5.800;2022-10-16T08:25:29;12.60;99.90
55091;DHT22;40985;53.180;5.800;2022-10-16T08:27:55;12.60;99.90
55091;DHT22;40985;53.180;5.800;2022-10-16T08:30:22;12.70;99.90
55091;DHT22;40985;53.180;5.800;2022-10-16T08:32:49;12.80;99.90
55091;DHT22;40985;53.180;5.800;2022-10-16T08:35:15;12.90;99.90
55091;DHT22;40985;53.180;5.800;2022-10-16T08:37:42;13.10;99.90
55091;DHT22;40985;53.180;5.800;2022-10-16T08:43:18;13.50;99.90
55091;DHT22;40985;53.180;5.800;2022-10-16T08:48:43;13.50;99.90
55091;DHT22;40985;53.180;5.800;2022-10-16T08:51:20;13.50;99.90
55091;DHT22;40985;53.180;5.800;2022-10-16T08:53:56;13.40;99.90
55091;DHT22;40985;53.180;5.800;2022-10-16T08:56:23;13.40;99.90
55091;DHT22;40985;53.180;5.800;2022-10-16T08:58:49;13.40;99.90
55091;DHT22;40985;53.180;5.800;2022-10-16T09:01:18;13.50;99.90
55091;DHT22;40985;53.180;5.800;2022-10-16T09:06:50;13.70;99.90
55091;DHT22;40985;53.180;5.800;2022-10-16T09:10:00;13.80;99.90
55091;DHT22;40985;53.180;5.800;2022-10-16T09:20:28;14.20;99.90
55091;DHT22;40985;53.180;5.800;2022-10-16T09:25:30;14.30;99.90
55091;DHT22;40985;53.180;5.800;2022-10-16T09:27:57;14.20;99.90
55091;DHT22;40985;53.180;5.800;2022-10-16T09:30:28;14.20;99.90
55091;DHT22;40985;53.180;5.800;2022-10-16T09:32:58;14.30;99.90
55091;DHT22;40985;53.180;5.800;2022-10-16T09:35:56;14.40;99.90
55091;DHT22;40985;53.180;5.800;2022-10-16T09:38:32;14.40;99.90
55091;DHT22;40985;53.180;5.800;2022-10-16T09:48:52;14.50;99.90
55091;DHT22;40985;53.180;5.800;2022-10-16T09:51:20;14.60;99.90
55091;DHT22;40985;53.180;5.800;2022-10-16T09:53:47;14.70;99.90
55091;DHT22;40985;53.180;5.800;2022-10-16T09:56:23;14.80;99.90
55091;DHT22;40985;53.180;5.800;2022-10-16T09:58:57;15.00;99.90
55091;DHT22;40985;53.180;5.800;2022-10-16T10:01:50;15.10;99.90
55091;DHT22;40985;53.180;5.800;2022-10-16T10:04:17;15.20;99.90
55091;DHT22;40985;53.180;5.800;2022-10-16T10:06:45;15.30;99.90
55091;DHT22;40985;53.180;5.800;2022-10-16T10:09:27;15.30;99.90
55091;DHT22;40985;53.180;5.800;2022-10-16T10:12:02;15.30;99.90
55091;DHT22;40985;53.180;5.800;2022-10-16T10:14:37;15.20;99.90
55091;DHT22;40985;53.180;5.800;2022-10-16T10:19:48;14.90;99.90
55091;DHT22;40985;53.180;5.800;2022-10-16T10:22:19;14.80;99.90
55091;DHT22;40985;53.180;5.800;2022-10-16T10:24:55;14.70;99.90
55091;DHT22;40985;53.180;5.800;2022-10-16T10:35:53;14.90;99.90
55091;DHT22;40985;53.180;5.800;2022-10-16T10:39:21;15.00;99.90
55091;DHT22;40985;53.180;5.800;2022-10-16T10:47:15;15.00;99.90
55091;DHT22;40985;53.180;5.800;2022-10-16T10:50:02;15.00;99.90
55091;DHT22;40985;53.180;5.800;2022-10-16T10:55:15;15.10;99.90
55091;DHT22;40985;53.180;5.800;2022-10-16T11:05:57;15.20;99.90
55091;DHT22;40985;53.180;5.800;2022-10-16T11:08:36;15.20;99.90
55091;DHT22;40985;53.180;5.800;2022-10-16T11:11:09;15.20;99.90
55091;DHT22;40985;53.180;5.800;2022-10-16T11:14:00;15.20;99.90
55091;DHT22;40985;53.180;5.800;2022-10-16T11:16:31;15.10;99.90
55091;DHT22;40985;53.180;5.800;2022-10-16T11:19:21;15.20;99.90
55091;DHT22;40985;53.180;5.800;2022-10-16T11:22:06;15.20;99.90
55091;DHT22;40985;53.180;5.800;2022-10-16T11:24:45;15.10;99.90
55091;DHT22;40985;53.180;5.800;2022-10-16T11:27:18;15.20;99.90
55091;DHT22;40985;53.180;5.800;2022-10-16T11:30:12;15.40;99.90
55091;DHT22;40985;53.180;5.800;2022-10-16T11:32:56;15.30;99.90
55091;DHT22;40985;53.180;5.800;2022-10-16T11:35:42;15.40;99.90
55091;DHT22;40985;53.180;5.800;2022-10-16T11:38:34;15.40;99.90
55091;DHT22;40985;53.180;5.800;2022-10-16T11:41:20;15.40;99.90
55091;DHT22;40985;53.180;5.800;2022-10-16T11:44:03;15.50;99.90
55091;DHT22;40985;53.180;5.800;2022-10-16T11:46:32;15.60;99.90
55091;DHT22;40985;53.180;5.800;2022-10-16T11:49:18;15.40;99.90
55091;DHT22;40985;53.180;5.800;2022-10-16T11:57:20;15.60;99.90
55091;DHT22;40985;53.180;5.800;2022-10-16T11:59:52;15.60;99.90
55091;DHT22;40985;53.180;5.800;2022-10-16T12:08:09;15.80;99.90
55091;DHT22;40985;53.180;5.800;2022-10-16T12:10:37;15.90;99.90
55091;DHT22;40985;53.180;5.800;2022-10-16T12:13:25;15.90;99.90
55091;DHT22;40985;53.180;5.800;2022-10-16T12:15:50;15.80;99.90
55091;DHT22;40985;53.180;5.800;2022-10-16T12:18:25;15.80;99.90
55091;DHT22;40985;53.180;5.800;2022-10-16T12:20:57;15.80;99.90
55091;DHT22;40985;53.180;5.800;2022-10-16T12:23:32;15.80;99.90
55091;DHT22;40985;53.180;5.800;2022-10-16T12:26:01;15.90;99.90
55091;DHT22;40985;53.180;5.800;2022-10-16T12:28:34;15.90;99.90
55091;DHT22;40985;53.180;5.800;2022-10-16T12:31:04;15.90;99.90
55091;DHT22;40985;53.180;5.800;2022-10-16T12:33:40;15.90;99.90
55091;DHT22;40985;53.180;5.800;2022-10-16T12:36:31;16.00;99.90
55091;DHT22;40985;53.180;5.800;2022-10-16T12:38:57;15.90;99.90
55091;DHT22;40985;53.180;5.800;2022-10-16T12:41:32;16.00;99.90
55091;DHT22;40985;53.180;5.800;2022-10-16T12:44:00;16.00;99.90
55091;DHT22;40985;53.180;5.800;2022-10-16T12:49:28;15.90;99.90
55091;DHT22;40985;53.180;5.800;2022-10-16T12:51:55;15.70;99.90
55091;DHT22;40985;53.180;5.800;2022-10-16T12:54:34;15.70;99.90
55091;DHT22;40985;53.180;5.800;2022-10-16T12:57:18;15.60;99.90
55091;DHT22;40985;53.180;5.800;2022-10-16T13:10:53;15.40;99.90
55091;DHT22;40985;53.180;5.800;2022-10-16T13:27:18;15.30;99.90
55091;DHT22;40985;53.180;5.800;2022-10-16T13:29:53;15.20;99.90
55091;DHT22;40985;53.180;5.800;2022-10-16T13:32:21;15.20;99.90
55091;DHT22;40985;53.180;5.800;2022-10-16T13:34:48;15.20;99.90
55091;DHT22;40985;53.180;5.800;2022-10-16T13:37:19;15.20;99.90
55091;DHT22;40985;53.180;5.800;2022-10-16T13:39:45;15.20;99.90
55091;DHT22;40985;53.180;5.800;2022-10-16T13:42:30;15.30;99.90
55091;DHT22;40985;53.180;5.800;2022-10-16T13:44:56;15.20;99.90
55091;DHT22;40985;53.180;5.800;2022-10-16T13:47:27;15.30;99.90
55091;DHT22;40985;53.180;5.800;2022-10-16T13:50:11;15.30;99.90
55091;DHT22;40985;53.180;5.800;2022-10-16T13:52:37;15.20;99.90
55091;DHT22;40985;53.180;5.800;2022-10-16T13:55:14;15.20;99.90
55091;DHT22;40985;53.180;5.800;2022-10-16T13:57:40;15.20;99.90
55091;DHT22;40985;53.180;5.800;2022-10-16T14:00:21;15.10;99.90
55091;DHT22;40985;53.180;5.800;2022-10-16T14:02:55;15.00;99.90
55091;DHT22;40985;53.180;5.800;2022-10-16T14:05:23;15.10;99.90
55091;DHT22;40985;53.180;5.800;2022-10-16T14:07:50;15.20;99.90
55091;DHT22;40985;53.180;5.800;2022-10-16T14:10:29;15.20;99.90
55091;DHT22;40985;53.180;5.800;2022-10-16T14:13:01;15.30;99.90
55091;DHT22;40985;53.180;5.800;2022-10-16T14:15:29;15.30;99.90
55091;DHT22;40985;53.180;5.800;2022-10-16T14:17:55;15.30;99.90
55091;DHT22;40985;53.180;5.800;2022-10-16T14:20:28;15.30;99.90
55091;DHT22;40985;53.180;5.800;2022-10-16T14:23:04;15.30;99.90
55091;DHT22;40985;53.180;5.800;2022-10-16T14:25:32;15.20;99.90
55091;DHT22;40985;53.180;5.800;2022-10-16T14:30:35;15.20;99.90
55091;DHT22;40985;53.180;5.800;2022-10-16T14:33:18;15.10;99.90
55091;DHT22;40985;53.180;5.800;2022-10-16T14:35:44;15.10;99.90
55091;DHT22;40985;53.180;5.800;2022-10-16T14:38:19;15.10;99.90
55091;DHT22;40985;53.180;5.800;2022-10-16T14:40:49;15.00;99.90
55091;DHT22;40985;53.180;5.800;2022-10-16T14:43:21;14.90;99.90
55091;DHT22;40985;53.180;5.800;2022-10-16T14:45:52;14.80;99.90
55091;DHT22;40985;53.180;5.800;2022-10-16T14:48:19;14.70;99.90
55091;DHT22;40985;53.180;5.800;2022-10-16T14:50:46;14.70;99.90
55091;DHT22;40985;53.180;5.800;2022-10-16T14:53:12;14.60;99.90
55091;DHT22;40985;53.180;5.800;2022-10-16T14:55:39;14.60;99.90
55091;DHT22;40985;53.180;5.800;2022-10-16T14:58:09;14.50;99.90
55091;DHT22;40985;53.180;5.800;2022-10-16T15:00:37;14.50;99.90
55091;DHT22;40985;53.180;5.800;2022-10-16T15:03:04;14.40;99.90
55091;DHT22;40985;53.180;5.800;2022-10-16T15:05:30;14.40;99.90
55091;DHT22;40985;53.180;5.800;2022-10-16T15:07:57;14.40;99.90
55091;DHT22;40985;53.180;5.800;2022-10-16T15:10:24;14.40;99.90
55091;DHT22;40985;53.180;5.800;2022-10-16T15:12:51;14.40;99.90
55091;DHT22;40985;53.180;5.800;2022-10-16T15:17:53;14.40;99.90
55091;DHT22;40985;53.180;5.800;2022-10-16T15:20:22;14.30;99.90
55091;DHT22;40985;53.180;5.800;2022-10-16T15:22:48;14.30;99.90
55091;DHT22;40985;53.180;5.800;2022-10-16T15:25:27;14.30;99.90
55091;DHT22;40985;53.180;5.800;2022-10-16T15:27:54;14.20;99.90
55091;DHT22;40985;53.180;5.800;2022-10-16T15:30:20;14.20;99.90
55091;DHT22;40985;53.180;5.800;2022-10-16T15:32:46;14.20;99.90
55091;DHT22;40985;53.180;5.800;2022-10-16T15:35:11;14.10;99.90
55091;DHT22;40985;53.180;5.800;2022-10-16T15:37:37;14.10;99.90
55091;DHT22;40985;53.180;5.800;2022-10-16T15:40:03;14.10;99.90
55091;DHT22;40985;53.180;5.800;2022-10-16T15:42:28;14.00;99.90
55091;DHT22;40985;53.180;5.800;2022-10-16T15:44:54;14.00;99.90
55091;DHT22;40985;53.180;5.800;2022-10-16T15:47:20;13.90;99.90
55091;DHT22;40985;53.180;5.800;2022-10-16T15:49:45;13.90;99.90
55091;DHT22;40985;53.180;5.800;2022-10-16T15:52:11;13.80;99.90
55091;DHT22;40985;53.180;5.800;2022-10-16T15:54:37;13.70;99.90
55091;DHT22;40985;53.180;5.800;2022-10-16T15:57:03;13.60;99.90
55091;DHT22;40985;53.180;5.800;2022-10-16T15:59:28;13.50;99.90
55091;DHT22;40985;53.180;5.800;2022-10-16T16:01:55;13.50;99.90
55091;DHT22;40985;53.180;5.800;2022-10-16T16:04:21;13.50;99.90
55091;DHT22;40985;53.180;5.800;2022-10-16T16:06:47;13.40;99.90
55091;DHT22;40985;53.180;5.800;2022-10-16T16:09:13;13.40;99.90
55091;DHT22;40985;53.180;5.800;2022-10-16T16:11:39;13.30;99.90
55091;DHT22;40985;53.180;5.800;2022-10-16T16:14:06;13.20;99.90
55091;DHT22;40985;53.180;5.800;2022-10-16T16:16:32;13.20;99.90
55091;DHT22;40985;53.180;5.800;2022-10-16T16:19:03;13.10;99.90
55091;DHT22;40985;53.180;5.800;2022-10-16T16:21:28;13.00;99.90
55091;DHT22;40985;53.180;5.800;2022-10-16T16:23:54;12.90;99.90
55091;DHT22;40985;53.180;5.800;2022-10-16T16:26:28;12.90;99.90
55091;DHT22;40985;53.180;5.800;2022-10-16T16:29:01;12.90;99.90
55091;DHT22;40985;53.180;5.800;2022-10-16T16:31:28;12.90;99.90
55091;DHT22;40985;53.180;5.800;2022-10-16T16:33:55;12.80;99.90
55091;DHT22;40985;53.180;5.800;2022-10-16T16:36:22;12.80;99.90
55091;DHT22;40985;53.180;5.800;2022-10-16T16:38:49;12.80;99.90
55091;DHT22;40985;53.180;5.800;2022-10-16T16:41:19;12.70;99.90
55091;DHT22;40985;53.180;5.800;2022-10-16T16:43:45;12.70;99.90
55091;DHT22;40985;53.180;5.800;2022-10-16T16:46:13;12.60;99.90
55091;DHT22;40985;53.180;5.800;2022-10-16T16:48:39;12.50;99.90
55091;DHT22;40985;53.180;5.800;2022-10-16T16:51:17;12.40;99.90
55091;DHT22;40985;53.180;5.800;2022-10-16T16:53:49;12.40;99.90
55091;DHT22;40985;53.180;5.800;2022-10-16T16:56:16;12.30;99.90
55091;DHT22;40985;53.180;5.800;2022-10-16T16:58:45;12.20;99.90
55091;DHT22;40985;53.180;5.800;2022-10-16T17:01:11;12.20;99.90
55091;DHT22;40985;53.180;5.800;2022-10-16T17:03:41;12.10;99.90
55091;DHT22;40985;53.180;5.800;2022-10-16T17:06:07;12.10;99.90
55091;DHT22;40985;53.180;5.800;2022-10-16T17:08:34;12.00;99.90
55091;DHT22;40985;53.180;5.800;2022-10-16T17:11:00;12.00;99.90
55091;DHT22;40985;53.180;5.800;2022-10-16T17:13:28;12.00;99.90
55091;DHT22;40985;53.180;5.800;2022-10-16T17:15:55;12.00;99.90
55091;DHT22;40985;53.180;5.800;2022-10-16T17:18:22;11.90;99.90
55091;DHT22;40985;53.180;5.800;2022-10-16T17:20:49;11.80;99.90
55091;DHT22;40985;53.180;5.800;2022-10-16T17:23:17;11.90;99.90
55091;DHT22;40985;53.180;5.800;2022-10-16T17:25:44;11.80;99.90
55091;DHT22;40985;53.180;5.800;2022-10-16T17:28:10;11.80;99.90
55091;DHT22;40985;53.180;5.800;2022-10-16T17:30:37;11.70;99.90
55091;DHT22;40985;53.180;5.800;2022-10-16T17:33:04;11.70;99.90
55091;DHT22;40985;53.180;5.800;2022-10-16T17:35:42;11.70;99.90